sensor_id;sensor_type;location;lat;lon;timestamp;pressure;altitude;pressure_sealevel;temperature;humidity
3102;BME280;1561;42.666;23.392;2022-10-17T00:01:02;96518.16;;;8.41;100.00
3102;BME280;1561;42.666;23.392;2022-10-17T00:03:30;96518.28;;;8.55;100.00
3102;BME280;1561;42.666;23.392;2022-10-17T00:05:58;96513.44;;;8.51;100.00
3102;BME280;1561;42.666;23.392;2022-10-17T00:08:25;96513.75;;;8.60;100.00
3102;BME280;1561;42.666;23.392;2022-10-17T00:10:56;96515.00;;;8.53;100.00
3102;BME280;1561;42.666;23.392;2022-10-17T00:13:23;96492.63;;;8.43;100.00
3102;BME280;1561;42.666;23.392;2022-10-17T00:15:51;96515.56;;;8.58;100.00
3102;BME280;1561;42.666;23.392;2022-10-17T00:18:22;96521.78;;;8.53;100.00
3102;BME280;1561;42.666;23.392;2022-10-17T00:20:49;96518.84;;;8.28;100.00
3102;BME280;1561;42.666;23.392;2022-10-17T00:23:18;96517.09;;;7.96;100.00
3102;BME280;1561;42.666;23.392;2022-10-17T00:25:45;96519.34;;;7.85;100.00
3102;BME280;1561;42.666;23.392;2022-10-17T00:28:13;96513.16;;;7.73;100.00
3102;BME280;1561;42.666;23.392;2022-10-17T00:30:40;96510.53;;;7.58;100.00
3102;BME280;1561;42.666;23.392;2022-10-17T00:33:07;96521.28;;;7.63;100.00
3102;BME280;1561;42.666;23.392;2022-10-17T00:35:35;96516.41;;;7.58;100.00
3102;BME280;1561;42.666;23.392;2022-10-17T00:38:02;96522.63;;;7.53;100.00
3102;BME280;1561;42.666;23.392;2022-10-17T00:40:28;96524.72;;;7.45;100.00
3102;BME280;1561;42.666;23.392;2022-10-17T00:42:56;96523.81;;;7.46;100.00
3102;BME280;1561;42.666;23.392;2022-10-17T00:45:24;96530.00;;;7.40;100.00
3102;BME280;1561;42.666;23.392;2022-10-17T00:47:54;96530.88;;;7.22;100.00
3102;BME280;1561;42.666;23.392;2022-10-17T00:50:23;96480.50;;;6.95;100.00
3102;BME280;1561;42.666;23.392;2022-10-17T00:52:52;96533.81;;;7.32;100.00
3102;BME280;1561;42.666;23.392;2022-10-17T00:55:23;96519.56;;;7.11;100.00
3102;BME280;1561;42.666;23.392;2022-10-17T00:57:51;96541.34;;;7.16;100.00
3102;BME280;1561;42.666;23.392;2022-10-17T01:00:18;96513.81;;;7.07;100.00
3102;BME280;1561;42.666;23.392;2022-10-17T01:02:46;96534.72;;;7.31;100.00
3102;BME280;1561;42.666;23.392;2022-10-17T01:05:14;96530.28;;;7.17;100.00
3102;BME280;1561;42.666;23.392;2022-10-17T01:07:42;96532.81;;;6.99;100.00
3102;BME280;1561;42.666;23.392;2022-10-17T01:10:11;96531.41;;;6.93;100.00
3102;BME280;1561;42.666;23.392;2022-10-17T01:12:47;96541.41;;;6.96;100.00
3102;BME280;1561;42.666;23.392;2022-10-17T01:15:24;96533.31;;;6.88;100.00
3102;BME280;1561;42.666;23.392;2022-10-17T01:18:03;96533.19;;;6.91;100.00
3102;BME280;1561;42.666;23.392;2022-10-17T01:23:41;96528.09;;;6.73;100.00
3102;BME280;1561;42.666;23.392;2022-10-17T01:26:22;96520.03;;;6.65;100.00
3102;BME280;1561;42.666;23.392;2022-10-17T01:29:10;96517.25;;;6.51;100.00
3102;BME280;1561;42.666;23.392;2022-10-17T01:31:45;96530.84;;;6.68;100.00
3102;BME280;1561;42.666;23.392;2022-10-17T01:34:17;96528.72;;;6.59;100.00
3102;BME280;1561;42.666;23.392;2022-10-17T01:36:49;96437.16;;;5.88;100.00
3102;BME280;1561;42.666;23.392;2022-10-17T01:39:21;96535.09;;;6.68;100.00
3102;BME280;1561;42.666;23.392;2022-10-17T01:41:54;96531.94;;;6.63;100.00
3102;BME280;1561;42.666;23.392;2022-10-17T01:44:28;96534.41;;;6.46;100.00
3102;BME280;1561;42.666;23.392;2022-10-17T01:47:04;96544.69;;;6.43;100.00
3102;BME280;1561;42.666;23.392;2022-10-17T01:49:33;96545.34;;;6.85;100.00
3102;BME280;1561;42.666;23.392;2022-10-17T01:52:03;96537.28;;;6.94;100.00
3102;BME280;1561;42.666;23.392;2022-10-17T01:54:36;96547.16;;;7.00;100.00
3102;BME280;1561;42.666;23.392;2022-10-17T01:57:09;96543.28;;;7.11;100.00
3102;BME280;1561;42.666;23.392;2022-10-17T01:59:40;96528.09;;;6.91;100.00
3102;BME280;1561;42.666;23.392;2022-10-17T02:02:10;96549.38;;;7.07;100.00
3102;BME280;1561;42.666;23.392;2022-10-17T02:04:38;96521.50;;;6.87;100.00
3102;BME280;1561;42.666;23.392;2022-10-17T02:07:06;96543.72;;;7.19;100.00
3102;BME280;1561;42.666;23.392;2022-10-17T02:09:33;96542.63;;;7.25;100.00
3102;BME280;1561;42.666;23.392;2022-10-17T02:12:18;96327.44;;;5.85;100.00
3102;BME280;1561;42.666;23.392;2022-10-17T02:14:58;96543.41;;;7.08;100.00
3102;BME280;1561;42.666;23.392;2022-10-17T02:17:35;96546.28;;;7.01;100.00
3102;BME280;1561;42.666;23.392;2022-10-17T02:20:12;96550.06;;;6.92;100.00
3102;BME280;1561;42.666;23.392;2022-10-17T02:22:47;96546.44;;;6.98;100.00
3102;BME280;1561;42.666;23.392;2022-10-17T02:25:24;96552.41;;;6.97;100.00
3102;BME280;1561;42.666;23.392;2022-10-17T02:27:58;96535.78;;;6.90;100.00
3102;BME280;1561;42.666;23.392;2022-10-17T02:30:30;96436.03;;;6.32;100.00
3102;BME280;1561;42.666;23.392;2022-10-17T02:33:04;96564.81;;;6.84;100.00
3102;BME280;1561;42.666;23.392;2022-10-17T02:35:37;96480.06;;;6.31;100.00
3102;BME280;1561;42.666;23.392;2022-10-17T02:38:07;96564.81;;;6.84;100.00
3102;BME280;1561;42.666;23.392;2022-10-17T02:40:36;96563.34;;;6.80;100.00
3102;BME280;1561;42.666;23.392;2022-10-17T02:43:05;96560.72;;;6.63;100.00
3102;BME280;1561;42.666;23.392;2022-10-17T02:45:34;96578.94;;;6.53;100.00
3102;BME280;1561;42.666;23.392;2022-10-17T02:48:05;96561.63;;;6.42;100.00
3102;BME280;1561;42.666;23.392;2022-10-17T02:50:42;96579.00;;;6.31;100.00
3102;BME280;1561;42.666;23.392;2022-10-17T02:53:14;96587.28;;;6.16;100.00
3102;BME280;1561;42.666;23.392;2022-10-17T02:55:47;96554.97;;;5.80;100.00
3102;BME280;1561;42.666;23.392;2022-10-17T02:58:19;96590.34;;;6.24;100.00
3102;BME280;1561;42.666;23.392;2022-10-17T03:00:46;96597.22;;;6.41;100.00
3102;BME280;1561;42.666;23.392;2022-10-17T03:03:20;96596.41;;;6.40;100.00
3102;BME280;1561;42.666;23.392;2022-10-17T03:05:47;96594.56;;;6.24;100.00
3102;BME280;1561;42.666;23.392;2022-10-17T03:08:14;96586.72;;;6.10;100.00
3102;BME280;1561;42.666;23.392;2022-10-17T03:10:41;96608.59;;;6.12;100.00
3102;BME280;1561;42.666;23.392;2022-10-17T03:13:08;96610.38;;;6.10;100.00
3102;BME280;1561;42.666;23.392;2022-10-17T03:15:36;96611.69;;;6.19;100.00
3102;BME280;1561;42.666;23.392;2022-10-17T03:18:03;96606.38;;;6.05;100.00
3102;BME280;1561;42.666;23.392;2022-10-17T03:20:31;96606.47;;;6.02;100.00
3102;BME280;1561;42.666;23.392;2022-10-17T03:22:58;96607.66;;;5.95;100.00
3102;BME280;1561;42.666;23.392;2022-10-17T03:25:28;96593.66;;;5.85;100.00
3102;BME280;1561;42.666;23.392;2022-10-17T03:27:57;96607.78;;;5.70;100.00
3102;BME280;1561;42.666;23.392;2022-10-17T03:30:23;96611.41;;;5.63;100.00
3102;BME280;1561;42.666;23.392;2022-10-17T03:32:50;96605.44;;;5.64;100.00
3102;BME280;1561;42.666;23.392;2022-10-17T03:35:17;96607.06;;;5.45;100.00
3102;BME280;1561;42.666;23.392;2022-10-17T03:37:45;96602.94;;;5.43;100.00
3102;BME280;1561;42.666;23.392;2022-10-17T03:40:12;96602.28;;;5.59;100.00
3102;BME280;1561;42.666;23.392;2022-10-17T03:42:39;96606.22;;;5.45;100.00
3102;BME280;1561;42.666;23.392;2022-10-17T03:45:06;96614.41;;;5.51;100.00
3102;BME280;1561;42.666;23.392;2022-10-17T03:47:34;96610.13;;;5.53;100.00
3102;BME280;1561;42.666;23.392;2022-10-17T03:50:00;96616.72;;;5.57;100.00
3102;BME280;1561;42.666;23.392;2022-10-17T03:52:27;96624.97;;;5.62;100.00
3102;BME280;1561;42.666;23.392;2022-10-17T03:54:56;96629.41;;;5.57;100.00
3102;BME280;1561;42.666;23.392;2022-10-17T03:57:23;96626.22;;;5.52;100.00
3102;BME280;1561;42.666;23.392;2022-10-17T03:59:50;96618.69;;;5.51;100.00
3102;BME280;1561;42.666;23.392;2022-10-17T04:02:17;96622.03;;;5.51;100.00
3102;BME280;1561;42.666;23.392;2022-10-17T04:04:43;96621.69;;;5.39;100.00
3102;BME280;1561;42.666;23.392;2022-10-17T04:07:10;96624.84;;;5.44;100.00
3102;BME280;1561;42.666;23.392;2022-10-17T04:09:37;96623.50;;;5.35;100.00
3102;BME280;1561;42.666;23.392;2022-10-17T04:12:07;96627.38;;;5.22;100.00
3102;BME280;1561;42.666;23.392;2022-10-17T04:14:36;96629.06;;;5.22;100.00
3102;BME280;1561;42.666;23.392;2022-10-17T04:17:04;96626.78;;;5.16;100.00
3102;BME280;1561;42.666;23.392;2022-10-17T04:19:31;96633.59;;;5.14;100.00
3102;BME280;1561;42.666;23.392;2022-10-17T04:21:58;96636.91;;;5.16;100.00
3102;BME280;1561;42.666;23.392;2022-10-17T04:24:25;96637.53;;;4.99;100.00
3102;BME280;1561;42.666;23.392;2022-10-17T04:26:53;96632.34;;;5.02;100.00
3102;BME280;1561;42.666;23.392;2022-10-17T04:29:22;96638.19;;;5.04;100.00
3102;BME280;1561;42.666;23.392;2022-10-17T04:31:50;96635.53;;;5.07;100.00
3102;BME280;1561;42.666;23.392;2022-10-17T04:34:17;96638.66;;;5.14;100.00
3102;BME280;1561;42.666;23.392;2022-10-17T04:36:53;96629.09;;;4.99;100.00
3102;BME280;1561;42.666;23.392;2022-10-17T04:39:19;96639.78;;;5.07;100.00
3102;BME280;1561;42.666;23.392;2022-10-17T04:41:46;96632.81;;;5.35;100.00
3102;BME280;1561;42.666;23.392;2022-10-17T04:44:13;96641.41;;;5.31;100.00
3102;BME280;1561;42.666;23.392;2022-10-17T04:46:41;96635.03;;;5.21;100.00
3102;BME280;1561;42.666;23.392;2022-10-17T04:49:08;96589.09;;;4.85;100.00
3102;BME280;1561;42.666;23.392;2022-10-17T04:51:36;96641.94;;;5.60;100.00
3102;BME280;1561;42.666;23.392;2022-10-17T04:54:03;96626.47;;;6.09;100.00
3102;BME280;1561;42.666;23.392;2022-10-17T04:56:31;96643.69;;;6.81;100.00
3102;BME280;1561;42.666;23.392;2022-10-17T04:59:00;96503.13;;;6.45;100.00
3102;BME280;1561;42.666;23.392;2022-10-17T05:01:28;96540.31;;;6.83;100.00
3102;BME280;1561;42.666;23.392;2022-10-17T05:03:58;96644.16;;;7.63;100.00
3102;BME280;1561;42.666;23.392;2022-10-17T05:06:27;96628.38;;;8.43;100.00
3102;BME280;1561;42.666;23.392;2022-10-17T05:08:56;96647.56;;;9.00;100.00
3102;BME280;1561;42.666;23.392;2022-10-17T05:11:31;96645.78;;;9.33;100.00
3102;BME280;1561;42.666;23.392;2022-10-17T05:14:00;96648.66;;;9.74;100.00
3102;BME280;1561;42.666;23.392;2022-10-17T05:16:28;96655.66;;;9.86;100.00
3102;BME280;1561;42.666;23.392;2022-10-17T05:18:56;96656.19;;;10.22;100.00
3102;BME280;1561;42.666;23.392;2022-10-17T05:21:26;96658.59;;;10.68;100.00
3102;BME280;1561;42.666;23.392;2022-10-17T05:23:54;96656.44;;;10.90;100.00
3102;BME280;1561;42.666;23.392;2022-10-17T05:26:22;96657.88;;;10.80;100.00
3102;BME280;1561;42.666;23.392;2022-10-17T05:28:49;96661.47;;;10.48;100.00
3102;BME280;1561;42.666;23.392;2022-10-17T05:31:17;96655.72;;;11.57;100.00
3102;BME280;1561;42.666;23.392;2022-10-17T05:33:43;96654.06;;;12.10;100.00
3102;BME280;1561;42.666;23.392;2022-10-17T05:36:13;96650.56;;;12.63;100.00
3102;BME280;1561;42.666;23.392;2022-10-17T05:38:41;96655.50;;;12.53;100.00
3102;BME280;1561;42.666;23.392;2022-10-17T05:41:09;96656.84;;;12.59;100.00
3102;BME280;1561;42.666;23.392;2022-10-17T05:43:36;96661.91;;;12.98;100.00
3102;BME280;1561;42.666;23.392;2022-10-17T05:46:04;96649.09;;;13.59;100.00
3102;BME280;1561;42.666;23.392;2022-10-17T05:48:31;96669.81;;;13.68;100.00
3102;BME280;1561;42.666;23.392;2022-10-17T05:50:59;96650.72;;;13.60;100.00
3102;BME280;1561;42.666;23.392;2022-10-17T05:53:29;96665.78;;;13.77;97.43
3102;BME280;1561;42.666;23.392;2022-10-17T05:56:00;96677.44;;;14.17;95.90
3102;BME280;1561;42.666;23.392;2022-10-17T05:58:28;96683.44;;;13.81;97.19
3102;BME280;1561;42.666;23.392;2022-10-17T06:01:00;96675.47;;;13.73;100.00
3102;BME280;1561;42.666;23.392;2022-10-17T06:03:28;96680.78;;;15.10;83.52
3102;BME280;1561;42.666;23.392;2022-10-17T06:06:01;96682.41;;;14.54;86.40
3102;BME280;1561;42.666;23.392;2022-10-17T06:08:29;96686.72;;;15.34;78.18
3102;BME280;1561;42.666;23.392;2022-10-17T06:10:59;96688.41;;;14.66;83.66
3102;BME280;1561;42.666;23.392;2022-10-17T06:13:26;96685.47;;;13.40;97.66
3102;BME280;1561;42.666;23.392;2022-10-17T06:15:53;96654.69;;;13.76;86.99
3102;BME280;1561;42.666;23.392;2022-10-17T06:18:21;96688.97;;;14.93;84.61
3102;BME280;1561;42.666;23.392;2022-10-17T06:20:48;96685.63;;;15.69;78.22
3102;BME280;1561;42.666;23.392;2022-10-17T06:23:17;96701.97;;;13.74;91.23
3102;BME280;1561;42.666;23.392;2022-10-17T06:25:46;96612.09;;;13.74;91.30
3102;BME280;1561;42.666;23.392;2022-10-17T06:28:14;96677.66;;;14.61;84.29
3102;BME280;1561;42.666;23.392;2022-10-17T06:30:41;96711.53;;;15.35;81.04
3102;BME280;1561;42.666;23.392;2022-10-17T06:33:08;96705.31;;;15.92;76.23
3102;BME280;1561;42.666;23.392;2022-10-17T06:35:35;96707.50;;;16.39;71.62
3102;BME280;1561;42.666;23.392;2022-10-17T06:38:02;96718.78;;;15.52;80.74
3102;BME280;1561;42.666;23.392;2022-10-17T06:40:30;96721.38;;;14.37;87.68
3102;BME280;1561;42.666;23.392;2022-10-17T06:42:57;96719.81;;;15.38;81.12
3102;BME280;1561;42.666;23.392;2022-10-17T06:45:25;96717.09;;;16.17;76.54
3102;BME280;1561;42.666;23.392;2022-10-17T06:48:05;96714.94;;;15.35;78.90
3102;BME280;1561;42.666;23.392;2022-10-17T06:50:32;96712.59;;;16.30;74.73
3102;BME280;1561;42.666;23.392;2022-10-17T06:52:59;96719.38;;;16.74;69.98
3102;BME280;1561;42.666;23.392;2022-10-17T06:55:28;96716.22;;;18.79;59.77
3102;BME280;1561;42.666;23.392;2022-10-17T06:57:58;96716.16;;;18.12;60.73
3102;BME280;1561;42.666;23.392;2022-10-17T07:00:27;96679.25;;;18.20;58.94
3102;BME280;1561;42.666;23.392;2022-10-17T07:02:57;96715.81;;;19.02;55.10
3102;BME280;1561;42.666;23.392;2022-10-17T07:05:24;96705.56;;;19.66;53.83
3102;BME280;1561;42.666;23.392;2022-10-17T07:07:51;96707.88;;;19.13;54.64
3102;BME280;1561;42.666;23.392;2022-10-17T07:10:18;96705.91;;;17.11;63.49
3102;BME280;1561;42.666;23.392;2022-10-17T07:12:45;96712.38;;;17.06;62.50
3102;BME280;1561;42.666;23.392;2022-10-17T07:15:15;96716.19;;;15.63;77.26
3102;BME280;1561;42.666;23.392;2022-10-17T07:17:47;96721.72;;;16.45;66.84
3102;BME280;1561;42.666;23.392;2022-10-17T07:20:15;96723.69;;;15.33;78.60
3102;BME280;1561;42.666;23.392;2022-10-17T07:22:42;96708.75;;;16.13;71.87
3102;BME280;1561;42.666;23.392;2022-10-17T07:25:12;96714.59;;;18.49;59.00
3102;BME280;1561;42.666;23.392;2022-10-17T07:27:39;96714.09;;;19.85;54.41
3102;BME280;1561;42.666;23.392;2022-10-17T07:30:07;96703.56;;;20.76;50.42
3102;BME280;1561;42.666;23.392;2022-10-17T07:32:36;96707.78;;;18.39;59.59
3102;BME280;1561;42.666;23.392;2022-10-17T07:35:07;96713.34;;;20.47;52.18
3102;BME280;1561;42.666;23.392;2022-10-17T07:37:34;96723.34;;;18.86;52.99
3102;BME280;1561;42.666;23.392;2022-10-17T07:40:01;96718.25;;;19.04;54.20
3102;BME280;1561;42.666;23.392;2022-10-17T07:42:31;96720.81;;;19.32;54.04
3102;BME280;1561;42.666;23.392;2022-10-17T07:44:59;96711.94;;;20.52;49.01
3102;BME280;1561;42.666;23.392;2022-10-17T07:47:26;96704.38;;;19.87;51.24
3102;BME280;1561;42.666;23.392;2022-10-17T07:49:55;96714.06;;;18.84;53.07
3102;BME280;1561;42.666;23.392;2022-10-17T07:52:26;96720.34;;;19.56;53.75
3102;BME280;1561;42.666;23.392;2022-10-17T07:54:53;96719.50;;;21.16;48.92
3102;BME280;1561;42.666;23.392;2022-10-17T07:57:22;96714.91;;;20.75;47.71
3102;BME280;1561;42.666;23.392;2022-10-17T07:59:49;96715.63;;;22.62;45.02
3102;BME280;1561;42.666;23.392;2022-10-17T08:02:21;96718.06;;;20.96;46.89
3102;BME280;1561;42.666;23.392;2022-10-17T08:04:50;96703.41;;;20.77;47.84
3102;BME280;1561;42.666;23.392;2022-10-17T08:07:17;96708.66;;;22.13;45.06
3102;BME280;1561;42.666;23.392;2022-10-17T08:09:47;96705.84;;;21.39;45.99
3102;BME280;1561;42.666;23.392;2022-10-17T08:12:16;96697.63;;;21.26;45.94
3102;BME280;1561;42.666;23.392;2022-10-17T08:14:43;96695.00;;;20.31;47.99
3102;BME280;1561;42.666;23.392;2022-10-17T08:17:10;96693.91;;;20.51;46.56
3102;BME280;1561;42.666;23.392;2022-10-17T08:19:38;96687.31;;;19.02;52.47
3102;BME280;1561;42.666;23.392;2022-10-17T08:22:05;96694.66;;;20.26;48.99
3102;BME280;1561;42.666;23.392;2022-10-17T08:24:33;96687.50;;;21.41;45.53
3102;BME280;1561;42.666;23.392;2022-10-17T08:27:03;96687.47;;;22.73;43.16
3102;BME280;1561;42.666;23.392;2022-10-17T08:29:35;96675.13;;;22.18;43.87
3102;BME280;1561;42.666;23.392;2022-10-17T08:32:04;96670.88;;;23.69;41.63
3102;BME280;1561;42.666;23.392;2022-10-17T08:34:32;96677.38;;;24.20;40.40
3102;BME280;1561;42.666;23.392;2022-10-17T08:36:59;96675.41;;;22.56;42.92
3102;BME280;1561;42.666;23.392;2022-10-17T08:39:26;96688.66;;;23.74;41.55
3102;BME280;1561;42.666;23.392;2022-10-17T08:42:23;96689.47;;;24.21;39.41
3102;BME280;1561;42.666;23.392;2022-10-17T08:45:01;96673.63;;;23.05;41.69
3102;BME280;1561;42.666;23.392;2022-10-17T08:47:42;96691.16;;;23.43;41.40
3102;BME280;1561;42.666;23.392;2022-10-17T08:50:13;96688.91;;;23.48;40.99
3102;BME280;1561;42.666;23.392;2022-10-17T08:52:47;96688.09;;;22.59;42.25
3102;BME280;1561;42.666;23.392;2022-10-17T08:55:30;96694.47;;;24.30;39.18
3102;BME280;1561;42.666;23.392;2022-10-17T08:58:03;96693.44;;;23.54;39.90
3102;BME280;1561;42.666;23.392;2022-10-17T09:00:31;96632.22;;;20.27;44.21
3102;BME280;1561;42.666;23.392;2022-10-17T09:03:12;96692.94;;;21.30;43.51
3102;BME280;1561;42.666;23.392;2022-10-17T09:05:51;96696.94;;;22.17;41.98
3102;BME280;1561;42.666;23.392;2022-10-17T09:08:33;96630.97;;;21.17;43.41
3102;BME280;1561;42.666;23.392;2022-10-17T09:11:14;96690.44;;;24.20;39.01
3102;BME280;1561;42.666;23.392;2022-10-17T09:13:58;96694.06;;;24.11;39.37
3102;BME280;1561;42.666;23.392;2022-10-17T09:16:41;96688.50;;;23.75;39.20
3102;BME280;1561;42.666;23.392;2022-10-17T09:19:17;96682.09;;;24.77;38.14
3102;BME280;1561;42.666;23.392;2022-10-17T09:21:48;96682.19;;;25.87;34.28
3102;BME280;1561;42.666;23.392;2022-10-17T09:24:22;96691.19;;;23.11;39.95
3102;BME280;1561;42.666;23.392;2022-10-17T09:27:14;96677.16;;;25.56;36.43
3102;BME280;1561;42.666;23.392;2022-10-17T09:29:45;96685.88;;;25.78;36.26
3102;BME280;1561;42.666;23.392;2022-10-17T09:32:18;96678.84;;;25.64;36.30
3102;BME280;1561;42.666;23.392;2022-10-17T09:34:46;96662.94;;;26.09;33.92
3102;BME280;1561;42.666;23.392;2022-10-17T09:37:15;96682.25;;;23.22;37.64
3102;BME280;1561;42.666;23.392;2022-10-17T09:39:43;96675.56;;;23.11;38.60
3102;BME280;1561;42.666;23.392;2022-10-17T09:42:14;96680.31;;;23.24;38.33
3102;BME280;1561;42.666;23.392;2022-10-17T09:44:49;96677.78;;;24.09;36.60
3102;BME280;1561;42.666;23.392;2022-10-17T09:47:26;96643.72;;;24.92;33.61
3102;BME280;1561;42.666;23.392;2022-10-17T09:49:54;96676.72;;;24.48;35.05
3102;BME280;1561;42.666;23.392;2022-10-17T09:52:26;96669.50;;;25.18;33.01
3102;BME280;1561;42.666;23.392;2022-10-17T09:54:59;96671.00;;;24.75;33.68
3102;BME280;1561;42.666;23.392;2022-10-17T09:57:27;96656.09;;;24.53;32.88
3102;BME280;1561;42.666;23.392;2022-10-17T10:00:01;96671.91;;;22.16;33.05
3102;BME280;1561;42.666;23.392;2022-10-17T10:02:30;96675.72;;;22.69;33.00
3102;BME280;1561;42.666;23.392;2022-10-17T10:05:03;96660.91;;;24.42;30.85
3102;BME280;1561;42.666;23.392;2022-10-17T10:07:32;96664.81;;;22.90;32.88
3102;BME280;1561;42.666;23.392;2022-10-17T10:10:00;96660.91;;;22.62;33.90
3102;BME280;1561;42.666;23.392;2022-10-17T10:12:32;96650.28;;;23.82;32.84
3102;BME280;1561;42.666;23.392;2022-10-17T10:15:01;96648.81;;;23.25;33.58
3102;BME280;1561;42.666;23.392;2022-10-17T10:17:44;96652.41;;;24.48;30.33
3102;BME280;1561;42.666;23.392;2022-10-17T10:20:27;96649.69;;;24.11;30.93
3102;BME280;1561;42.666;23.392;2022-10-17T10:23:11;96639.06;;;24.12;31.45
3102;BME280;1561;42.666;23.392;2022-10-17T10:25:48;96645.78;;;24.07;31.76
3102;BME280;1561;42.666;23.392;2022-10-17T10:28:18;96629.63;;;22.38;33.79
3102;BME280;1561;42.666;23.392;2022-10-17T10:30:50;96624.69;;;23.39;33.24
3102;BME280;1561;42.666;23.392;2022-10-17T10:33:21;96632.84;;;24.13;32.38
3102;BME280;1561;42.666;23.392;2022-10-17T10:35:55;96631.81;;;23.53;31.98
3102;BME280;1561;42.666;23.392;2022-10-17T10:38:27;96586.84;;;25.23;30.12
3102;BME280;1561;42.666;23.392;2022-10-17T10:40:55;96610.88;;;25.70;29.59
3102;BME280;1561;42.666;23.392;2022-10-17T10:43:29;96619.53;;;24.76;30.90
3102;BME280;1561;42.666;23.392;2022-10-17T10:45:59;96619.78;;;23.83;30.80
3102;BME280;1561;42.666;23.392;2022-10-17T10:48:30;96613.59;;;24.37;30.83
3102;BME280;1561;42.666;23.392;2022-10-17T10:51:02;96592.47;;;24.69;30.13
3102;BME280;1561;42.666;23.392;2022-10-17T10:53:41;96615.25;;;25.12;30.02
3102;BME280;1561;42.666;23.392;2022-10-17T10:56:14;96609.22;;;25.26;28.98
3102;BME280;1561;42.666;23.392;2022-10-17T10:58:49;96598.72;;;25.84;28.95
3102;BME280;1561;42.666;23.392;2022-10-17T11:01:26;96598.00;;;26.04;28.23
3102;BME280;1561;42.666;23.392;2022-10-17T11:04:07;96594.53;;;26.81;27.51
3102;BME280;1561;42.666;23.392;2022-10-17T11:06:41;96584.28;;;25.38;27.90
3102;BME280;1561;42.666;23.392;2022-10-17T11:09:33;96591.47;;;25.50;29.10
3102;BME280;1561;42.666;23.392;2022-10-17T11:12:12;96592.91;;;24.50;29.68
3102;BME280;1561;42.666;23.392;2022-10-17T11:14:45;96598.09;;;24.58;29.82
3102;BME280;1561;42.666;23.392;2022-10-17T11:17:26;96591.69;;;24.83;29.32
3102;BME280;1561;42.666;23.392;2022-10-17T11:20:02;96592.59;;;24.53;29.40
3102;BME280;1561;42.666;23.392;2022-10-17T11:22:37;96584.06;;;24.14;29.62
3102;BME280;1561;42.666;23.392;2022-10-17T11:25:18;96577.06;;;24.74;29.74
3102;BME280;1561;42.666;23.392;2022-10-17T11:27:54;96591.81;;;23.22;30.81
3102;BME280;1561;42.666;23.392;2022-10-17T11:30:29;96583.28;;;23.36;30.95
3102;BME280;1561;42.666;23.392;2022-10-17T11:33:03;96578.75;;;23.30;30.87
3102;BME280;1561;42.666;23.392;2022-10-17T11:35:36;96503.13;;;23.53;30.48
3102;BME280;1561;42.666;23.392;2022-10-17T11:38:12;96573.59;;;23.53;30.87
3102;BME280;1561;42.666;23.392;2022-10-17T11:40:43;96584.22;;;22.64;31.66
3102;BME280;1561;42.666;23.392;2022-10-17T11:43:14;96573.47;;;22.67;32.09
3102;BME280;1561;42.666;23.392;2022-10-17T11:45:46;96589.25;;;22.74;31.42
3102;BME280;1561;42.666;23.392;2022-10-17T11:48:20;96544.31;;;22.08;31.87
3102;BME280;1561;42.666;23.392;2022-10-17T11:50:52;96578.16;;;21.58;33.37
3102;BME280;1561;42.666;23.392;2022-10-17T11:53:26;96566.63;;;22.26;32.14
3102;BME280;1561;42.666;23.392;2022-10-17T11:55:58;96563.16;;;21.86;31.99
3102;BME280;1561;42.666;23.392;2022-10-17T11:58:34;96566.16;;;21.24;33.07
3102;BME280;1561;42.666;23.392;2022-10-17T12:01:15;96570.63;;;21.39;33.13
3102;BME280;1561;42.666;23.392;2022-10-17T12:04:03;96564.00;;;22.10;32.07
3102;BME280;1561;42.666;23.392;2022-10-17T12:06:46;96556.84;;;22.36;31.27
3102;BME280;1561;42.666;23.392;2022-10-17T12:09:22;96566.31;;;22.45;32.29
3102;BME280;1561;42.666;23.392;2022-10-17T12:11:54;96395.97;;;20.19;33.72
3102;BME280;1561;42.666;23.392;2022-10-17T12:14:36;96550.03;;;19.83;35.68
3102;BME280;1561;42.666;23.392;2022-10-17T12:17:26;96554.28;;;19.57;35.84
3102;BME280;1561;42.666;23.392;2022-10-17T12:20:24;96566.84;;;19.97;34.88
3102;BME280;1561;42.666;23.392;2022-10-17T12:22:53;96561.16;;;20.28;34.58
3102;BME280;1561;42.666;23.392;2022-10-17T12:25:22;96559.56;;;20.35;34.55
3102;BME280;1561;42.666;23.392;2022-10-17T12:28:04;96553.44;;;20.36;33.68
3102;BME280;1561;42.666;23.392;2022-10-17T12:30:36;96554.50;;;20.94;33.28
3102;BME280;1561;42.666;23.392;2022-10-17T12:33:14;96549.31;;;21.36;32.69
3102;BME280;1561;42.666;23.392;2022-10-17T12:35:49;96551.59;;;21.80;32.63
3102;BME280;1561;42.666;23.392;2022-10-17T12:38:24;96545.19;;;21.67;32.54
3102;BME280;1561;42.666;23.392;2022-10-17T12:41:02;96538.22;;;20.92;33.71
3102;BME280;1561;42.666;23.392;2022-10-17T12:43:54;96552.31;;;21.15;32.89
3102;BME280;1561;42.666;23.392;2022-10-17T12:46:46;96543.56;;;20.65;33.29
3102;BME280;1561;42.666;23.392;2022-10-17T12:49:40;96550.72;;;20.46;33.37
3102;BME280;1561;42.666;23.392;2022-10-17T12:55:00;96541.13;;;20.89;32.78
3102;BME280;1561;42.666;23.392;2022-10-17T12:57:34;96544.59;;;20.98;32.21
3102;BME280;1561;42.666;23.392;2022-10-17T13:00:13;96544.88;;;20.44;32.66
3102;BME280;1561;42.666;23.392;2022-10-17T13:02:44;96538.75;;;20.10;33.68
3102;BME280;1561;42.666;23.392;2022-10-17T13:05:15;96544.47;;;19.96;33.45
3102;BME280;1561;42.666;23.392;2022-10-17T13:07:47;96541.22;;;20.54;32.74
3102;BME280;1561;42.666;23.392;2022-10-17T13:10:22;96536.84;;;20.80;31.99
3102;BME280;1561;42.666;23.392;2022-10-17T13:12:52;96534.97;;;20.65;32.12
3102;BME280;1561;42.666;23.392;2022-10-17T13:15:20;96533.88;;;20.24;31.57
3102;BME280;1561;42.666;23.392;2022-10-17T13:17:55;96539.34;;;20.39;31.30
3102;BME280;1561;42.666;23.392;2022-10-17T13:20:24;96540.19;;;20.22;30.99
3102;BME280;1561;42.666;23.392;2022-10-17T13:22:54;96538.69;;;20.19;30.64
3102;BME280;1561;42.666;23.392;2022-10-17T13:25:24;96536.19;;;20.10;30.35
3102;BME280;1561;42.666;23.392;2022-10-17T13:28:03;96523.47;;;19.89;31.01
3102;BME280;1561;42.666;23.392;2022-10-17T13:30:32;96538.34;;;20.14;31.46
3102;BME280;1561;42.666;23.392;2022-10-17T13:33:02;96496.63;;;19.81;30.89
3102;BME280;1561;42.666;23.392;2022-10-17T13:35:32;96442.94;;;19.38;31.21
3102;BME280;1561;42.666;23.392;2022-10-17T13:38:04;96530.00;;;19.93;31.65